This is the latest recevied weather packets stored in our database for station/object K7VLL. If no packets are shown the sender has not sent any weather packets the latest 10 day(s).
| Time | Temp. | Humidity | Pressure | Rain* | Wind** | Luminosity | Snow |
|---|---|---|---|---|---|---|---|
| 1778262990 | 30.56° C | 14% | 1090.7 hPa | 0 mm | - | 656 W/m² | - |
| 1778261188 | 29.44° C | 16% | 1090.8 hPa | 0 mm | - | 605 W/m² | - |
| 1778259387 | 28.33° C | 19% | 1091.1 hPa | 0 mm | - | 549 W/m² | - |
| 1778257585 | 26.11° C | 21% | 1091.3 hPa | 0 mm | - | 377 W/m² | - |
| 1778255781 | 23.89° C | 25% | 1091.4 hPa | 0 mm | - | 129 W/m² | - |
| 1778253980 | 22.22° C | 28% | 1091.6 hPa | 0 mm | - | 50 W/m² | - |
| 1778252176 | 20.56° C | 31% | 1091.5 hPa | 0 mm | - | 35 W/m² | - |
| 1778250376 | 18.89° C | 35% | 1091.7 hPa | 0 mm | - | 32 W/m² | - |
| 1778248574 | 17.78° C | 38% | 1091.3 hPa | 0 mm | - | 100 W/m² | - |
| 1778246773 | 17.22° C | 39% | 1091 hPa | 0 mm | - | 27 W/m² | - |
| 1778244973 | 13.89° C | 45% | 1090.9 hPa | 0 mm | - | 15 W/m² | - |
| 1778243169 | 13.33° C | 47% | 1090.5 hPa | 0 mm | - | 1 W/m² | - |
| 1778241366 | 13.33° C | 46% | 1090.3 hPa | 0 mm | - | 0 W/m² | - |
| 1778239565 | 14.44° C | 44% | 1090.1 hPa | 0 mm | - | 0 W/m² | - |
| 1778237762 | 13.89° C | 44% | 1090.1 hPa | 0 mm | - | 0 W/m² | - |
| 1778235963 | 15° C | 40% | 1089.8 hPa | 0 mm | - | 0 W/m² | - |
| 1778234158 | 15° C | 40% | 1089.8 hPa | 0 mm | - | 0 W/m² | - |
| 1778232359 | 15.56° C | 38% | 1089.6 hPa | 0 mm | - | 0 W/m² | - |
| 1778230559 | 15° C | 41% | 1089.8 hPa | 0 mm | - | 0 W/m² | - |
| 1778228757 | 16.11° C | 39% | 1089.8 hPa | 0 mm | - | 0 W/m² | - |
| 1778226957 | 16.11° C | 36% | 1089.8 hPa | 0 mm | - | 0 W/m² | - |
| 1778225157 | 17.22° C | 35% | 1090.7 hPa | 0 mm | - | 0 W/m² | - |
| 1778223355 | 18.33° C | 30% | 1090.3 hPa | 0 mm | - | 0 W/m² | - |
| 1778221552 | 19.44° C | 29% | 1090.6 hPa | 0 mm | - | 0 W/m² | - |
| 1778219750 | 20.56° C | 24% | 1090.6 hPa | 0 mm | - | 0 W/m² | - |
* Rain latest hour (hover to see other rain measurements)
** Current wind speed in m/s (hover to see current wind gust speed)